Time;durP1;ratioP1;P1;durP2;ratioP2;P2;SDS_P1;SDS_P2;PMS_P1;PMS_P2;Temp;Humidity;BMP_temperature;BMP_pressure;BME280_temperature;BME280_humidity;BME280_pressure;Samples;Min_cycle;Max_cycle;Signal;HPM_P1;HPM_P2
2023/01/24 00:00:07;;;;;;;339.15;94.68;;;;;;;4.65;100.00;100901.28;268474;36;9748;-77
2023/01/24 00:00:17;;;;;;;340.52;95.10;;;;;;;4.66;100.00;100899.56;265365;37;1899;-76
2023/01/24 00:00:28;;;;;;;337.60;94.87;;;;;;;4.65;100.00;100903.88;265555;36;7901;-75
2023/01/24 00:00:38;;;;;;;339.63;93.83;;;;;;;4.67;100.00;100904.75;263692;36;9069;-77
2023/01/24 00:00:49;;;;;;;338.93;93.23;;;;;;;4.68;100.00;100900.44;264638;37;1373;-77
2023/01/24 00:01:00;;;;;;;343.90;92.60;;;;;;;4.71;100.00;100908.22;261470;37;1018;-76
2023/01/24 00:01:10;;;;;;;341.80;92.13;;;;;;;4.71;100.00;100903.03;261549;37;7931;-76
2023/01/24 00:01:21;;;;;;;338.85;91.40;;;;;;;4.73;100.00;100909.09;262927;36;6413;-77
2023/01/24 00:03:41;;;;;;;327.71;86.04;;;;;;;4.53;100.00;100905.53;2496716;27;20844;-77
2023/01/24 00:03:51;;;;;;;332.30;85.20;;;;;;;4.51;100.00;100902.94;349908;28;1404;-77
2023/01/24 00:04:01;;;;;;;332.70;83.90;;;;;;;4.49;100.00;100903.81;348618;28;1342;-76
2023/01/24 00:04:12;;;;;;;330.13;85.23;;;;;;;4.47;100.00;100905.53;345841;28;1396;-76
2023/01/24 00:04:22;;;;;;;331.15;87.40;;;;;;;4.48;100.00;100908.13;347280;28;816;-76
2023/01/24 00:04:32;;;;;;;331.20;88.70;;;;;;;4.50;100.00;100905.53;347300;28;828;-76
2023/01/24 00:04:43;;;;;;;334.38;89.35;;;;;;;4.52;100.00;100906.41;347188;28;1442;-76
2023/01/24 00:04:53;;;;;;;337.80;89.93;;;;;;;4.56;100.00;100908.16;348570;28;1310;-76
2023/01/24 00:05:04;;;;;;;338.48;90.50;;;;;;;4.58;100.00;100903.84;349835;28;1424;-76
2023/01/24 00:05:15;;;;;;;336.20;89.28;;;;;;;4.62;100.00;100905.59;348550;28;999;-77
2023/01/24 00:05:25;;;;;;;335.37;88.27;;;;;;;4.60;100.00;100908.19;347247;28;812;-76
2023/01/24 00:05:35;;;;;;;333.85;88.07;;;;;;;4.56;100.00;100905.56;348099;28;926;-77
2023/01/24 00:05:46;;;;;;;336.23;89.57;;;;;;;4.51;100.00;100908.13;347438;28;1195;-77
2023/01/24 00:05:57;;;;;;;332.60;87.93;;;;;;;4.51;100.00;100908.13;347276;28;845;-76
2023/01/24 00:06:07;;;;;;;334.58;87.50;;;;;;;4.53;100.00;100910.72;347481;28;4353;-76
2023/01/24 00:06:18;;;;;;;331.93;87.60;;;;;;;4.54;100.00;100907.28;351269;28;3431;-76
2023/01/24 00:06:28;;;;;;;338.65;93.10;;;;;;;4.53;100.00;100910.72;351588;28;1242;-77
2023/01/24 00:06:38;;;;;;;339.83;93.97;;;;;;;4.54;100.00;100912.47;348550;28;3451;-77
2023/01/24 00:06:49;;;;;;;341.13;93.67;;;;;;;4.49;100.00;100904.66;348890;28;1231;-77
2023/01/24 00:06:59;;;;;;;335.17;89.28;;;;;;;4.50;100.00;100915.91;349899;28;3877;-76
2023/01/24 00:07:09;;;;;;;334.73;90.73;;;;;;;4.54;100.00;100907.28;346789;28;6062;-76
2023/01/24 00:07:20;;;;;;;336.02;91.80;;;;;;;4.54;100.00;100915.06;347277;28;1841;-76
2023/01/24 00:07:30;;;;;;;340.00;94.23;;;;;;;4.54;100.00;100907.28;347148;28;1696;-76
2023/01/24 00:07:41;;;;;;;338.60;91.78;;;;;;;4.56;100.00;100901.25;347339;28;3789;-76
2023/01/24 00:07:51;;;;;;;337.43;89.40;;;;;;;4.60;100.00;100913.38;346857;28;1401;-76
2023/01/24 00:08:01;;;;;;;335.30;88.88;;;;;;;4.62;100.00;100903.88;348316;28;3861;-77
2023/01/24 00:08:12;;;;;;;342.07;90.93;;;;;;;4.64;100.00;100907.34;345318;28;3492;-76
2023/01/24 00:08:23;;;;;;;341.25;91.07;;;;;;;4.65;100.00;100910.78;347249;28;1806;-76
2023/01/24 00:08:33;;;;;;;338.83;90.53;;;;;;;4.66;100.00;100909.94;346062;28;1761;-76
2023/01/24 00:08:44;;;;;;;336.10;90.63;;;;;;;4.67;100.00;100912.53;345847;28;3487;-76
2023/01/24 00:08:54;;;;;;;339.27;91.00;;;;;;;4.69;100.00;100907.34;344360;28;1707;-76
2023/01/24 00:09:04;;;;;;;340.63;92.32;;;;;;;4.73;100.00;100905.63;342113;28;5984;-76
2023/01/24 00:09:15;;;;;;;340.00;91.57;;;;;;;4.75;100.00;100904.78;345898;28;1328;-77
2023/01/24 00:09:25;;;;;;;338.77;91.10;;;;;;;4.78;100.00;100906.50;344110;28;3857;-75
2023/01/24 00:09:36;;;;;;;341.53;91.73;;;;;;;4.80;100.00;100908.22;342421;28;5778;-75
2023/01/24 00:09:46;;;;;;;341.13;90.65;;;;;;;4.82;100.00;100909.09;341939;28;5361;-75
2023/01/24 00:09:56;;;;;;;341.87;92.00;;;;;;;4.85;100.00;100918.63;344050;28;3798;-75
2023/01/24 00:10:08;;;;;;;337.77;90.03;;;;;;;4.85;100.00;100914.31;342360;28;3994;-76
2023/01/24 00:10:18;;;;;;;340.58;92.88;;;;;;;4.88;100.00;100911.72;342950;28;3639;-78
2023/01/24 00:10:29;;;;;;;340.30;92.18;;;;;;;4.87;100.00;100911.72;339042;28;4009;-77
2023/01/24 00:10:40;;;;;;;342.70;93.63;;;;;;;4.81;100.00;100912.56;343881;28;1433;-77
2023/01/24 00:11:00;;;;;;;340.10;93.57;;;;;;;4.70;100.00;100903.91;340196;28;3919;-77
2023/01/24 00:11:11;;;;;;;334.67;90.00;;;;;;;4.72;100.00;100909.97;341985;28;896;-75
2023/01/24 00:11:22;;;;;;;334.30;90.25;;;;;;;4.71;100.00;100915.13;343167;28;1307;-75
2023/01/24 00:11:32;;;;;;;336.83;90.60;;;;;;;4.70;100.00;100909.09;339536;29;1789;-75
2023/01/24 00:11:43;;;;;;;339.43;92.40;;;;;;;4.73;100.00;100919.47;336485;29;1594;-75
2023/01/24 00:11:53;;;;;;;339.48;91.78;;;;;;;4.74;100.00;100909.97;339993;28;1246;-75
2023/01/24 00:12:04;;;;;;;336.97;90.97;;;;;;;4.74;100.00;100910.84;337629;28;1407;-76
2023/01/24 00:12:14;;;;;;;338.27;90.45;;;;;;;4.74;100.00;100910.84;336622;29;1250;-78
2023/01/24 00:12:24;;;;;;;341.50;92.77;;;;;;;4.75;100.00;100907.38;330737;29;1269;-76
2023/01/24 00:12:35;;;;;;;343.92;93.50;;;;;;;4.77;100.00;100910.81;331828;29;1927;-76
2023/01/24 00:12:45;;;;;;;346.43;94.40;;;;;;;4.81;100.00;100912.56;328686;29;1331;-76
2023/01/24 00:12:56;;;;;;;345.52;94.38;;;;;;;4.80;100.00;100916.00;329047;29;1324;-76
2023/01/24 00:13:06;;;;;;;344.33;94.87;;;;;;;4.78;100.00;100911.69;329341;29;997;-76
2023/01/24 00:13:16;;;;;;;339.45;93.50;;;;;;;4.74;100.00;100907.38;332348;29;1203;-76
2023/01/24 00:13:27;;;;;;;339.77;91.70;;;;;;;4.73;100.00;100919.47;329027;30;820;-76
2023/01/24 00:13:37;;;;;;;340.07;91.07;;;;;;;4.73;100.00;100918.59;332807;29;1333;-76
2023/01/24 00:13:48;;;;;;;341.73;91.60;;;;;;;4.76;100.00;100914.31;332926;29;1384;-76
2023/01/24 00:13:58;;;;;;;340.75;91.40;;;;;;;4.80;100.00;100916.00;331322;29;1343;-76
2023/01/24 00:14:08;;;;;;;340.17;91.20;;;;;;;4.82;100.00;100916.00;328718;29;1692;-75
2023/01/24 00:14:19;;;;;;;339.80;90.10;;;;;;;4.79;100.00;100916.00;329608;29;2009;-76
2023/01/24 00:14:29;;;;;;;338.58;90.85;;;;;;;4.79;100.00;100919.47;327816;30;1262;-77
2023/01/24 00:14:40;;;;;;;337.57;91.37;;;;;;;4.80;100.00;100909.97;325337;30;1190;-76
2023/01/24 00:14:51;;;;;;;343.20;92.20;;;;;;;4.81;100.00;100915.16;327861;30;1593;-76
2023/01/24 00:15:01;;;;;;;346.25;93.57;;;;;;;4.84;100.00;100915.16;329520;29;1588;-76
2023/01/24 00:15:12;;;;;;;350.87;95.70;;;;;;;4.87;100.00;100916.91;330210;29;1359;-76
2023/01/24 00:15:22;;;;;;;347.77;96.30;;;;;;;4.84;100.00;100922.94;329038;29;1257;-76
2023/01/24 00:15:32;;;;;;;344.37;94.70;;;;;;;4.79;100.00;100914.28;327964;30;1450;-75
2023/01/24 00:15:43;;;;;;;339.90;93.32;;;;;;;4.80;100.00;100918.59;324205;30;1227;-76
2023/01/24 00:16:07;;;;;;;339.17;92.07;;;;;;;4.81;100.00;100922.06;327242;29;1791;-77
2023/01/24 00:16:21;;;;;;;336.83;90.53;;;;;;;4.81;100.00;100915.16;321667;30;2232;-76
2023/01/24 00:16:32;;;;;;;333.85;89.88;;;;;;;4.83;100.00;100918.63;319201;30;2651;-76
2023/01/24 00:16:42;;;;;;;337.98;90.40;;;;;;;4.85;100.00;100916.91;317036;31;1580;-77
2023/01/24 00:16:52;;;;;;;340.00;91.10;;;;;;;4.84;100.00;100922.94;318855;30;2611;-76
2023/01/24 00:17:03;;;;;;;339.93;91.73;;;;;;;4.83;100.00;100921.22;318610;30;1663;-76
2023/01/24 00:17:13;;;;;;;338.15;93.70;;;;;;;4.84;100.00;100924.66;321818;30;1354;-76
2023/01/24 00:17:24;;;;;;;338.03;94.97;;;;;;;4.86;100.00;100920.34;321540;30;1202;-76
2023/01/24 00:17:34;;;;;;;339.40;96.53;;;;;;;4.88;100.00;100919.50;324089;30;1576;-76
2023/01/24 00:17:45;;;;;;;338.73;93.63;;;;;;;4.90;100.00;100919.50;321163;30;1951;-76
2023/01/24 00:17:55;;;;;;;337.23;91.47;;;;;;;4.91;100.00;100919.50;319418;30;1222;-76
2023/01/24 00:18:05;;;;;;;336.13;90.47;;;;;;;4.93;100.00;100922.97;317983;30;2388;-76
2023/01/24 00:18:16;;;;;;;337.67;90.90;;;;;;;4.96;100.00;100917.81;315347;30;3051;-77
2023/01/24 00:18:26;;;;;;;338.30;91.73;;;;;;;4.97;100.00;100911.75;318396;31;786;-77
2023/01/24 00:18:36;;;;;;;340.55;92.75;;;;;;;4.99;100.00;100916.94;318965;30;2744;-77
2023/01/24 00:18:47;;;;;;;340.30;93.00;;;;;;;5.00;100.00;100916.94;317044;31;3273;-77
2023/01/24 00:18:58;;;;;;;342.05;94.53;;;;;;;5.00;100.00;100923.88;314874;31;1229;-77
2023/01/24 00:19:08;;;;;;;342.40;94.27;;;;;;;4.99;100.00;100919.53;312857;31;3415;-77
2023/01/24 00:19:18;;;;;;;342.15;94.10;;;;;;;4.99;100.00;100912.63;312058;31;2397;-76
2023/01/24 00:19:29;;;;;;;340.77;93.00;;;;;;;4.98;100.00;100913.47;312754;31;1340;-76
2023/01/24 00:19:39;;;;;;;340.73;92.32;;;;;;;4.91;100.00;100918.66;314280;31;1748;-76
2023/01/24 00:19:49;;;;;;;337.33;92.70;;;;;;;4.80;100.00;100918.59;310069;31;3771;-76
2023/01/24 00:20:00;;;;;;;335.67;92.63;;;;;;;4.75;100.00;100912.56;306097;31;4521;-76
2023/01/24 00:20:10;;;;;;;332.93;92.80;;;;;;;4.74;100.00;100921.22;310691;31;3692;-76
2023/01/24 00:20:21;;;;;;;337.60;95.35;;;;;;;4.72;100.00;100919.47;304183;31;3810;-76
2023/01/24 00:20:31;;;;;;;337.30;94.03;;;;;;;4.69;100.00;100909.94;301547;31;4147;-76
2023/01/24 00:20:42;;;;;;;337.52;93.15;;;;;;;4.69;100.00;100922.91;306597;32;1334;-76
2023/01/24 00:20:54;;;;;;;334.23;91.00;;;;;;;4.63;100.00;100917.69;305007;31;4991;-76
2023/01/24 00:21:09;;;;;;;335.30;91.28;;;;;;;4.62;100.00;100918.56;307793;31;4322;-76
2023/01/24 00:21:21;;;;;;;339.75;94.05;;;;;;;4.63;100.00;100915.09;305939;31;4737;-76
2023/01/24 00:21:31;;;;;;;341.45;94.68;;;;;;;4.67;100.00;100920.31;302960;32;3573;-76
2023/01/24 00:21:42;;;;;;;338.60;93.23;;;;;;;4.69;100.00;100912.53;299315;32;1371;-76
2023/01/24 00:21:52;;;;;;;336.07;92.17;;;;;;;4.71;100.00;100920.31;298557;32;5719;-76
2023/01/24 00:22:03;;;;;;;337.90;93.67;;;;;;;4.70;100.00;100919.47;300713;32;3687;-76
2023/01/24 00:22:13;;;;;;;340.85;94.65;;;;;;;4.72;100.00;100912.56;301046;32;1686;-76
2023/01/24 00:22:24;;;;;;;344.93;95.60;;;;;;;4.75;100.00;100922.94;296154;33;5376;-76
2023/01/24 00:22:34;;;;;;;349.50;96.65;;;;;;;4.78;100.00;100916.88;298149;32;5418;-76
2023/01/24 00:22:44;;;;;;;345.90;94.70;;;;;;;4.78;100.00;100912.53;299111;33;853;-76
2023/01/24 00:22:55;;;;;;;337.77;93.13;;;;;;;4.73;100.00;100914.28;294327;33;5664;-77
2023/01/24 00:23:05;;;;;;;332.97;90.87;;;;;;;4.78;100.00;100927.25;295527;33;5139;-77
2023/01/24 00:23:16;;;;;;;338.60;92.65;;;;;;;4.75;100.00;100911.69;295022;33;5893;-77
2023/01/24 00:23:26;;;;;;;340.20;94.07;;;;;;;4.74;100.00;100915.16;292155;33;2230;-77
2023/01/24 00:23:36;;;;;;;342.80;94.80;;;;;;;4.71;100.00;100909.94;290858;33;6341;-76
2023/01/24 00:23:48;;;;;;;337.38;91.28;;;;;;;4.71;100.00;100909.94;291563;33;5536;-76
2023/01/24 00:23:59;;;;;;;335.25;89.00;;;;;;;4.71;100.00;100916.00;290652;33;5804;-76
2023/01/24 00:24:09;;;;;;;334.93;90.63;;;;;;;4.69;100.00;100909.94;292084;33;4186;-76
2023/01/24 00:24:19;;;;;;;338.40;94.40;;;;;;;4.70;100.00;100914.28;289344;33;5414;-76
2023/01/24 00:24:32;;;;;;;341.33;97.27;;;;;;;4.72;100.00;100915.16;285608;34;6843;-76
2023/01/24 00:24:43;;;;;;;341.15;96.55;;;;;;;4.75;100.00;100916.88;287311;34;893;-77
2023/01/24 00:24:53;;;;;;;342.55;94.30;;;;;;;4.72;100.00;100916.88;282190;34;7068;-77
2023/01/24 00:25:04;;;;;;;341.80;92.30;;;;;;;4.70;100.00;100913.41;284278;34;10433;-76
2023/01/24 00:26:58;;;;;;;333.31;90.92;;;;;;;4.88;100.00;100924.69;2488104;27;20554;-76
2023/01/24 00:27:09;;;;;;;340.33;95.53;;;;;;;4.80;100.00;100916.00;352793;28;4065;-77
2023/01/24 00:27:19;;;;;;;341.10;94.73;;;;;;;4.69;100.00;100917.72;349642;28;2368;-77
2023/01/24 00:27:31;;;;;;;340.48;92.45;;;;;;;4.66;100.00;100915.97;347684;28;3508;-77
2023/01/24 00:27:41;;;;;;;339.67;90.75;;;;;;;4.66;100.00;100915.13;351021;28;3636;-77
2023/01/24 00:27:52;;;;;;;339.67;92.87;;;;;;;4.67;100.00;100909.06;347888;28;6099;-76
2023/01/24 00:28:02;;;;;;;337.23;92.78;;;;;;;4.67;100.00;100914.25;345724;28;3863;-77
2023/01/24 00:28:13;;;;;;;338.57;91.93;;;;;;;4.65;100.00;100918.56;345375;28;6289;-77
2023/01/24 00:28:23;;;;;;;338.53;90.60;;;;;;;4.63;100.00;100920.28;346682;28;3521;-76
2023/01/24 00:28:33;;;;;;;339.27;92.17;;;;;;;4.65;100.00;100918.56;346040;28;6307;-76
2023/01/24 00:28:44;;;;;;;334.80;90.90;;;;;;;4.66;100.00;100918.56;348735;28;931;-75
2023/01/24 00:28:54;;;;;;;336.75;90.55;;;;;;;4.69;100.00;100922.91;349707;28;1716;-76
2023/01/24 00:29:05;;;;;;;336.35;89.68;;;;;;;4.69;100.00;100917.72;349995;28;1241;-75
2023/01/24 00:29:15;;;;;;;336.57;91.90;;;;;;;4.73;100.00;100914.28;350057;28;921;-76
2023/01/24 00:29:25;;;;;;;339.17;92.87;;;;;;;4.76;100.00;100913.44;348742;28;1377;-76
2023/01/24 00:29:36;;;;;;;341.02;95.30;;;;;;;4.80;100.00;100915.16;350468;28;1340;-76
2023/01/24 00:29:46;;;;;;;345.77;92.90;;;;;;;4.77;100.00;100921.19;351347;28;1014;-76
2023/01/24 00:29:57;;;;;;;343.92;92.10;;;;;;;4.74;100.00;100916.00;350025;28;1452;-76
2023/01/24 00:30:08;;;;;;;346.70;89.93;;;;;;;4.71;100.00;100913.41;349257;28;1120;-75
2023/01/24 00:30:19;;;;;;;338.85;90.93;;;;;;;4.67;100.00;100914.25;348324;28;1377;-75
2023/01/24 00:30:29;;;;;;;339.93;90.57;;;;;;;4.63;100.00;100908.19;348678;28;812;-75
2023/01/24 00:30:39;;;;;;;336.25;90.18;;;;;;;4.66;100.00;100920.31;351156;28;1442;-75
2023/01/24 00:30:50;;;;;;;340.30;90.10;;;;;;;4.70;100.00;100913.41;348361;28;1273;-75
2023/01/24 00:31:00;;;;;;;337.80;90.82;;;;;;;4.72;100.00;100916.88;347174;28;1517;-75
2023/01/24 00:31:11;;;;;;;339.77;92.43;;;;;;;4.73;100.00;100918.59;348427;28;1392;-76
2023/01/24 00:31:21;;;;;;;338.87;91.53;;;;;;;4.72;100.00;100917.75;348724;28;1028;-76
2023/01/24 00:31:32;;;;;;;339.80;91.13;;;;;;;4.71;100.00;100912.53;348657;28;1034;-76
2023/01/24 00:31:42;;;;;;;338.38;88.63;;;;;;;4.74;100.00;100915.16;344487;28;1125;-75
2023/01/24 00:31:53;;;;;;;340.63;90.22;;;;;;;4.76;100.00;100913.44;345730;28;1200;-74
2023/01/24 00:32:03;;;;;;;342.47;89.33;;;;;;;4.77;100.00;100910.81;344486;28;813;-74
2023/01/24 00:32:15;;;;;;;342.05;92.30;;;;;;;4.83;100.00;100915.16;345928;28;840;-77
2023/01/24 00:32:26;;;;;;;342.20;92.88;;;;;;;4.85;100.00;100918.63;344379;28;1434;-77
2023/01/24 00:32:38;;;;;;;339.92;93.30;;;;;;;4.80;100.00;100915.16;342985;28;1419;-78
2023/01/24 00:32:49;;;;;;;337.55;90.53;;;;;;;4.77;100.00;100918.59;345029;28;1738;-76
2023/01/24 00:32:59;;;;;;;338.93;91.57;;;;;;;4.79;100.00;100906.50;345769;28;1491;-76
2023/01/24 00:33:09;;;;;;;341.05;92.82;;;;;;;4.80;100.00;100916.00;343109;28;1189;-76
2023/01/24 00:33:20;;;;;;;339.83;93.70;;;;;;;4.82;100.00;100916.00;341223;28;1626;-76
2023/01/24 00:33:34;;;;;;;340.00;93.93;;;;;;;4.84;100.00;100922.06;339046;29;1497;-76
2023/01/24 00:33:44;;;;;;;338.60;92.47;;;;;;;4.85;100.00;100911.72;340380;29;1289;-77
2023/01/24 00:33:54;;;;;;;340.67;92.17;;;;;;;4.88;100.00;100914.31;342405;28;1450;-77
2023/01/24 00:34:05;;;;;;;337.48;90.20;;;;;;;4.92;100.00;100921.25;340415;29;1564;-76
2023/01/24 00:34:15;;;;;;;339.73;92.27;;;;;;;4.92;100.00;100926.44;338526;29;3861;-76
2023/01/24 00:34:26;;;;;;;338.87;92.73;;;;;;;4.93;100.00;100911.72;336790;29;4378;-75
2023/01/24 00:34:36;;;;;;;337.50;93.13;;;;;;;4.90;100.00;100917.78;340978;28;3603;-75
2023/01/24 00:34:46;;;;;;;342.53;95.20;;;;;;;4.87;100.00;100915.19;339324;29;2523;-76
2023/01/24 00:34:57;;;;;;;342.63;94.13;;;;;;;4.83;100.00;100910.84;339944;28;3192;-76
2023/01/24 00:35:08;;;;;;;343.40;95.60;;;;;;;4.81;100.00;100917.75;339084;29;1740;-76
2023/01/24 00:35:18;;;;;;;337.97;93.50;;;;;;;4.74;100.00;100922.94;339292;28;4428;-76
2023/01/24 00:35:28;;;;;;;336.65;93.25;;;;;;;4.71;100.00;100916.00;341226;28;3664;-75
2023/01/24 00:35:39;;;;;;;335.87;92.30;;;;;;;4.65;100.00;100915.97;340591;28;1450;-76
2023/01/24 00:35:51;;;;;;;339.52;92.85;;;;;;;4.65;100.00;100923.75;339313;29;1947;-76
2023/01/24 00:36:01;;;;;;;338.60;90.20;;;;;;;4.65;100.00;100915.97;337851;29;1822;-76
2023/01/24 00:36:12;;;;;;;340.27;89.70;;;;;;;4.68;100.00;100913.41;339302;29;1192;-76
2023/01/24 00:36:22;;;;;;;339.45;92.35;;;;;;;4.70;100.00;100914.28;336705;29;6217;-75
2023/01/24 00:36:33;;;;;;;341.27;95.33;;;;;;;4.69;100.00;100915.13;339076;29;3880;-75
2023/01/24 00:36:43;;;;;;;342.17;96.63;;;;;;;4.72;100.00;100922.91;335504;29;1300;-75
2023/01/24 00:36:53;;;;;;;341.97;96.63;;;;;;;4.74;100.00;100918.63;335526;29;1884;-75
2023/01/24 00:37:04;;;;;;;344.58;96.20;;;;;;;4.76;100.00;100914.31;336139;29;3730;-75
2023/01/24 00:37:14;;;;;;;339.10;93.30;;;;;;;4.79;100.00;100923.78;337951;29;3777;-76
2023/01/24 00:37:25;;;;;;;345.70;92.35;;;;;;;4.81;100.00;100915.16;332152;29;6154;-76
2023/01/24 00:37:36;;;;;;;342.35;91.78;;;;;;;4.84;100.00;100917.75;330981;29;3748;-76
2023/01/24 00:37:46;;;;;;;348.87;93.93;;;;;;;4.87;100.00;100919.50;329982;29;1775;-76
2023/01/24 00:37:57;;;;;;;343.52;94.43;;;;;;;4.90;100.00;100920.38;333782;29;3548;-77
2023/01/24 00:38:07;;;;;;;344.53;94.03;;;;;;;4.92;100.00;100918.66;333978;29;1440;-76
2023/01/24 00:38:18;;;;;;;340.52;91.40;;;;;;;4.93;100.00;100922.97;332389;29;5696;-75
2023/01/24 00:38:30;;;;;;;339.60;91.28;;;;;;;4.95;100.00;100918.66;331490;29;6116;-75
2023/01/24 00:38:40;;;;;;;341.04;94.24;;;;;;;4.98;100.00;100920.41;331635;29;1100;-75
2023/01/24 00:38:50;;;;;;;339.57;95.63;;;;;;;4.98;100.00;100928.19;328668;29;2008;-76
2023/01/24 00:39:01;;;;;;;337.90;93.40;;;;;;;4.94;100.00;100924.72;324403;30;3496;-76
2023/01/24 00:39:11;;;;;;;336.23;93.43;;;;;;;4.89;100.00;100921.22;326163;29;3717;-77
2023/01/24 00:39:24;;;;;;;340.27;96.67;;;;;;;4.84;100.00;100916.88;319843;30;5762;-77
2023/01/24 00:39:35;;;;;;;341.77;98.38;;;;;;;4.84;100.00;100922.06;318967;30;2462;-77
2023/01/24 00:39:45;;;;;;;341.95;96.60;;;;;;;4.83;100.00;100921.22;318286;31;1777;-77
2023/01/24 00:39:55;;;;;;;342.00;95.03;;;;;;;4.84;100.00;100922.94;318414;30;3780;-77
2023/01/24 00:40:07;;;;;;;341.45;94.20;;;;;;;4.86;100.00;100921.22;314520;31;2347;-77
2023/01/24 00:40:17;;;;;;;340.35;93.60;;;;;;;4.88;100.00;100919.50;312447;31;4276;-77
2023/01/24 00:40:28;;;;;;;338.73;94.03;;;;;;;4.89;100.00;100921.22;312995;31;3470;-75
2023/01/24 00:40:38;;;;;;;338.80;94.53;;;;;;;4.91;100.00;100921.25;311562;31;2857;-75
2023/01/24 00:40:48;;;;;;;341.08;95.85;;;;;;;4.92;100.00;100923.84;313415;31;1985;-76
2023/01/24 00:40:59;;;;;;;342.70;95.07;;;;;;;4.93;100.00;100922.97;314007;31;2938;-75
2023/01/24 00:41:09;;;;;;;343.63;96.40;;;;;;;4.96;100.00;100923.00;317415;30;2474;-75
2023/01/24 00:41:20;;;;;;;345.30;96.70;;;;;;;4.97;100.00;100919.53;315174;30;4363;-76
2023/01/24 00:41:30;;;;;;;345.05;97.32;;;;;;;4.98;100.00;100918.66;313289;31;3446;-76
2023/01/24 00:41:41;;;;;;;343.50;96.63;;;;;;;4.99;100.00;100917.81;320785;30;2916;-76
2023/01/24 00:41:54;;;;;;;340.70;96.23;;;;;;;5.03;100.00;100923.00;322471;30;3019;-75
2023/01/24 00:42:04;;;;;;;337.88;94.20;;;;;;;5.02;100.00;100909.16;318834;30;2861;-75
2023/01/24 00:42:15;;;;;;;338.45;93.10;;;;;;;5.04;100.00;100911.78;318593;30;4444;-75
2023/01/24 00:42:27;;;;;;;338.97;93.47;;;;;;;5.06;100.00;100912.66;318744;30;5478;-74
2023/01/24 00:42:37;;;;;;;343.50;94.88;;;;;;;5.06;100.00;100912.66;320639;30;2018;-75
2023/01/24 00:42:48;;;;;;;343.43;95.97;;;;;;;5.07;100.00;100916.97;321662;30;2381;-74
2023/01/24 00:42:58;;;;;;;349.52;98.22;;;;;;;5.09;100.00;100913.53;314032;31;3526;-74
2023/01/24 00:43:09;;;;;;;345.47;96.30;;;;;;;5.11;100.00;100916.13;314260;31;2880;-74
2023/01/24 00:43:19;;;;;;;341.70;94.77;;;;;;;5.12;100.00;100918.72;311405;31;5108;-75
2023/01/24 00:43:30;;;;;;;338.90;95.80;;;;;;;5.13;100.00;100919.59;316826;31;3830;-74
2023/01/24 00:43:40;;;;;;;344.40;96.97;;;;;;;5.08;100.00;100919.56;312997;31;5800;-74
2023/01/24 00:43:50;;;;;;;346.33;97.35;;;;;;;5.06;100.00;100917.84;311306;31;4345;-74
2023/01/24 00:44:01;;;;;;;345.00;97.67;;;;;;;5.04;100.00;100909.19;313991;31;1115;-74
2023/01/24 00:44:14;;;;;;;340.05;97.35;;;;;;;5.04;100.00;100915.22;310891;31;4356;-74
2023/01/24 00:44:25;;;;;;;344.48;97.58;;;;;;;5.05;100.00;100913.50;308775;31;3692;-73
2023/01/24 00:44:35;;;;;;;345.77;97.63;;;;;;;5.06;100.00;100912.66;311336;31;3742;-73
2023/01/24 00:44:45;;;;;;;346.23;97.03;;;;;;;5.04;100.00;100916.97;313740;31;1479;-72
2023/01/24 00:44:56;;;;;;;345.40;96.85;;;;;;;5.00;100.00;100914.34;314005;31;2716;-73
2023/01/24 00:45:07;;;;;;;341.40;94.33;;;;;;;4.96;100.00;100919.53;309870;31;2982;-73
2023/01/24 00:45:17;;;;;;;339.30;94.53;;;;;;;4.86;100.00;100917.75;304349;31;4123;-73
2023/01/24 00:45:27;;;;;;;336.58;93.20;;;;;;;4.78;100.00;100912.53;307225;32;891;-73
2023/01/24 00:45:38;;;;;;;342.27;93.40;;;;;;;4.75;100.00;100915.16;307214;31;5273;-73
2023/01/24 00:45:48;;;;;;;340.98;92.85;;;;;;;4.77;100.00;100921.19;307485;31;5009;-73
2023/01/24 00:45:59;;;;;;;346.00;92.80;;;;;;;4.78;100.00;100922.91;308273;32;1456;-73
2023/01/24 00:46:09;;;;;;;338.65;91.90;;;;;;;4.78;100.00;100916.88;303131;32;5663;-74
2023/01/24 00:46:20;;;;;;;340.10;90.80;;;;;;;4.78;100.00;100919.47;301438;31;5567;-74
2023/01/24 00:46:30;;;;;;;336.05;91.43;;;;;;;4.77;100.00;100916.00;307153;32;824;-74
2023/01/24 00:46:41;;;;;;;335.43;89.93;;;;;;;4.76;100.00;100918.63;309076;31;5345;-74
2023/01/24 00:46:52;;;;;;;333.80;90.07;;;;;;;4.74;100.00;100921.22;307396;31;5428;-74
2023/01/24 00:47:02;;;;;;;332.42;89.45;;;;;;;4.65;100.00;100915.97;308151;31;3325;-73
2023/01/24 00:47:12;;;;;;;333.70;91.83;;;;;;;4.63;100.00;100922.88;300599;32;1506;-73
2023/01/24 00:47:25;;;;;;;331.88;91.18;;;;;;;4.59;100.00;100915.94;301810;32;4479;-73
2023/01/24 00:47:35;;;;;;;331.63;90.60;;;;;;;4.56;100.00;100915.94;301760;32;5627;-73
2023/01/24 00:47:46;;;;;;;330.98;89.72;;;;;;;4.56;100.00;100921.13;301811;32;1155;-73
2023/01/24 00:47:56;;;;;;;333.00;90.57;;;;;;;4.59;100.00;100915.94;299906;32;7357;-73
2023/01/24 00:48:07;;;;;;;336.15;91.40;;;;;;;4.61;100.00;100919.41;297157;32;7742;-73
2023/01/24 00:48:17;;;;;;;339.80;90.80;;;;;;;4.64;100.00;100917.69;298653;32;7671;-73
2023/01/24 00:48:30;;;;;;;338.90;91.63;;;;;;;4.66;100.00;100917.72;299519;32;1238;-73
2023/01/24 00:48:40;;;;;;;337.10;90.82;;;;;;;4.65;100.00;100921.16;297405;33;8153;-73
2023/01/24 00:48:51;;;;;;;336.43;90.87;;;;;;;4.64;100.00;100919.44;293098;33;7019;-73
2023/01/24 00:49:01;;;;;;;340.17;91.97;;;;;;;4.65;100.00;100921.16;294162;33;3387;-73
2023/01/24 00:49:11;;;;;;;340.57;93.10;;;;;;;4.64;100.00;100925.47;292538;33;7993;-73
2023/01/24 00:49:22;;;;;;;343.00;93.57;;;;;;;4.62;100.00;100932.38;291621;33;5634;-76
2023/01/24 00:49:34;;;;;;;344.47;92.10;;;;;;;4.58;100.00;100925.44;292851;33;6929;-74
2023/01/24 00:49:45;;;;;;;341.48;90.35;;;;;;;4.53;100.00;100921.09;290128;34;1125;-74
2023/01/24 00:52:09;;;;;;;325.61;85.78;;;;;;;4.47;100.00;100915.88;2494830;27;20690;-73
2023/01/24 00:52:19;;;;;;;341.97;93.60;;;;;;;4.48;100.00;100913.31;353419;27;1864;-74
2023/01/24 00:52:30;;;;;;;342.20;93.60;;;;;;;4.52;100.00;100925.41;352569;28;3286;-74
2023/01/24 00:52:40;;;;;;;339.20;91.10;;;;;;;4.56;100.00;100924.56;350211;28;878;-74
2023/01/24 00:52:50;;;;;;;336.08;88.70;;;;;;;4.61;100.00;100924.59;344757;28;5484;-74
2023/01/24 00:53:01;;;;;;;336.50;89.63;;;;;;;4.62;100.00;100918.56;348314;28;3336;-75
2023/01/24 00:53:12;;;;;;;340.92;91.03;;;;;;;4.65;100.00;100922.03;350068;28;3008;-74
2023/01/24 00:53:22;;;;;;;341.73;91.75;;;;;;;4.68;100.00;100916.84;350329;28;3254;-74
2023/01/24 00:53:33;;;;;;;345.37;93.30;;;;;;;4.72;100.00;100919.47;351577;28;1332;-74
2023/01/24 00:53:43;;;;;;;342.02;90.65;;;;;;;4.74;100.00;100915.16;346158;28;1229;-74
2023/01/24 00:53:54;;;;;;;342.70;90.07;;;;;;;4.79;100.00;100923.78;346068;28;4967;-74
2023/01/24 00:54:04;;;;;;;343.00;90.78;;;;;;;4.79;100.00;100919.47;349768;28;3667;-74
2023/01/24 00:54:14;;;;;;;344.20;91.63;;;;;;;4.81;100.00;100916.88;350247;28;2452;-74
2023/01/24 00:54:25;;;;;;;343.05;92.25;;;;;;;4.83;100.00;100916.03;348790;28;3081;-74
2023/01/24 00:54:35;;;;;;;339.60;90.97;;;;;;;4.85;100.00;100919.50;349194;28;1203;-74
2023/01/24 00:54:46;;;;;;;336.95;91.18;;;;;;;4.86;100.00;100921.22;349166;28;4112;-75
2023/01/24 00:54:56;;;;;;;336.27;92.30;;;;;;;4.90;100.00;100922.09;349300;28;5293;-74
2023/01/24 00:55:07;;;;;;;337.20;92.40;;;;;;;4.91;100.00;100922.09;351364;28;2166;-74
2023/01/24 00:55:17;;;;;;;339.13;94.63;;;;;;;4.94;100.00;100922.13;351288;28;1628;-74